Aérodrome :
LOGIN :

S'inscrire | Disclaimer

   EN    FR    IT 

 










Légende :    VFR   VFR Marginal   IFR   IFR Intensif   IFR Très Intensif
Visi : 
Plafond : 
>= 8 km
>= 3000ft
5 à 8 km
1000 à 3000 ft
1500m à 5 km
500 à 1000 ft
800 à 1500m
200 à 500 ft
< 800m
< 200 ft
Symboles :   Orages  Brouillard  Fortes neiges  Fortes précipitations  Vent > 20 kt
SIGMETs :   Divers  Orages  Givrage  Turbulence  Onde Orograph.  Cendres Volcan.






- Altitude de l'aérodrome : 1568 ft


ETSB - Büchel AB

DERNIER METAR :
  • 131146Z 23008KT 1200 R21////// BR OVC001 02/02 Q1001 RED YLO TEMPO RED

METARs EXPIRÉS :
  • 131120Z 24009KT 2000 BR OVC001 02/02 Q1002 RED RED BECMG YLO
  • 131040Z 24009KT 2200 BR OVC001 02/02 Q1002 RED RED BECMG YLO
  • 131033Z 24010KT 1200 R21////// BR OVC001 02/02 Q1001 RED RED
  • 131020Z 23010KT 0300 R21////// FG VV001 02/01 Q1001 RED RED
  • 130920Z 23009KT 0300 R21////// FG VV001 01/01 Q1001 RED RED

TAF TAF ETSB
Valide du 13 à 12h jusqu'au 13 à 21h UTC


131105Z 1312/1321 23010KT 4000 BR FEW001 BKN003
TEMPO 1312/1317 22008KT 0500 FG BKN001 BKN002
BECMG 1317/1319 21010KT 0500 FG BKN001 OVC002 BY ETGL



MET'MAP, la Météo Aéronautique d'un coup d'oeil ! - Copyright ORBIFLY Décembre 2007 - Disclaimer

ORBIFLY MET'MAP TEAM :

Programmation & Développement : Alexandra Zaïnal
Conception & Développement : Baudouin d'Aumeries
Co-Programmation & Développement : Marc-Olivier Méhu
Soutien technique & logistique : Manuel Goepfert

Contact : metmap@orbifly.com




SOURCES & CREDITS :

   NOAA